createdAt,value
2022-09-03T00:01:27.341Z,3.30
2022-09-03T00:04:01.964Z,2.70
2022-09-03T00:06:49.758Z,2.70
2022-09-03T00:09:27.302Z,3.20
2022-09-03T00:12:13.859Z,3.00
2022-09-03T00:14:56.336Z,2.60
2022-09-03T00:17:54.434Z,2.60
2022-09-03T00:20:34.503Z,3.00
2022-09-03T00:23:08.240Z,3.00
2022-09-03T00:26:04.988Z,2.90
2022-09-03T00:28:44.120Z,2.90
2022-09-03T00:31:20.644Z,2.90
2022-09-03T00:33:52.826Z,3.20
2022-09-03T00:36:35.795Z,2.60
2022-09-03T00:39:03.867Z,2.50
2022-09-03T00:41:45.302Z,2.40
2022-09-03T00:44:37.917Z,2.40
2022-09-03T00:47:26.336Z,2.20
2022-09-03T00:50:17.529Z,2.20
2022-09-03T00:53:32.548Z,2.20
2022-09-03T00:56:23.471Z,2.10
2022-09-03T00:59:36.052Z,2.00
2022-09-03T01:02:36.542Z,2.00
2022-09-03T01:05:34.658Z,2.20
2022-09-03T01:08:44.528Z,2.10
2022-09-03T01:11:59.736Z,2.00
2022-09-03T01:15:35.615Z,1.90
2022-09-03T01:18:35.266Z,2.10
2022-09-03T01:21:36.650Z,2.10
2022-09-03T01:24:34.304Z,2.10
2022-09-03T01:27:26.034Z,2.40
2022-09-03T01:30:12.118Z,2.30
2022-09-03T01:33:04.570Z,2.40
2022-09-03T01:36:07.890Z,2.20
2022-09-03T01:39:16.186Z,2.10
2022-09-03T01:42:20.325Z,2.50
2022-09-03T01:45:46.751Z,2.20
2022-09-03T01:48:56.601Z,2.00
2022-09-03T01:51:29.432Z,2.30
2022-09-03T01:57:34.971Z,2.40
2022-09-03T02:00:20.526Z,2.90
2022-09-03T02:02:51.720Z,2.40
2022-09-03T02:05:27.605Z,3.10
2022-09-03T02:08:08.756Z,2.60
2022-09-03T02:10:53.722Z,2.60
2022-09-03T02:13:27.359Z,2.50
2022-09-03T02:16:00.262Z,2.70
2022-09-03T02:21:07.847Z,2.80
2022-09-03T02:23:35.949Z,2.60
2022-09-03T02:26:04.053Z,2.70
2022-09-03T02:28:33.134Z,2.90
2022-09-03T02:31:01.123Z,2.80
2022-09-03T02:33:30.295Z,2.60
2022-09-03T02:35:58.240Z,2.90
2022-09-03T02:38:27.096Z,2.60
2022-09-03T02:40:55.894Z,2.70
2022-09-03T02:43:50.614Z,3.00
2022-09-03T02:46:43.710Z,3.00
2022-09-03T02:49:11.736Z,3.30
2022-09-03T02:51:43.243Z,3.00
2022-09-03T02:54:20.724Z,3.40
2022-09-03T02:56:49.899Z,3.20
2022-09-03T02:59:18.079Z,3.00
2022-09-03T03:01:46.521Z,3.30
2022-09-03T03:04:15.346Z,3.50
2022-09-03T03:06:43.312Z,3.10
2022-09-03T03:09:15.709Z,3.10
2022-09-03T03:11:43.617Z,2.90
2022-09-03T03:14:11.463Z,3.20
2022-09-03T03:16:39.469Z,2.90
2022-09-03T03:19:07.406Z,3.10
2022-09-03T03:21:35.354Z,3.80
2022-09-03T03:24:04.274Z,3.20
2022-09-03T03:26:32.930Z,2.80
2022-09-03T03:29:04.653Z,2.80
2022-09-03T03:31:33.811Z,3.20
2022-09-03T03:34:03.315Z,3.10
2022-09-03T03:36:33.705Z,2.60
2022-09-03T03:39:02.326Z,3.40
2022-09-03T03:41:33.960Z,3.40
2022-09-03T03:44:07.266Z,3.30
2022-09-03T03:46:41.213Z,3.20
2022-09-03T03:49:11.110Z,2.90
2022-09-03T03:51:39.175Z,3.10
2022-09-03T03:54:07.486Z,3.50
2022-09-03T03:56:35.588Z,2.80
2022-09-03T03:59:04.197Z,2.60
2022-09-03T04:01:32.711Z,3.30
2022-09-03T04:04:00.659Z,2.90
2022-09-03T04:06:29.137Z,3.10
2022-09-03T04:08:57.102Z,3.10
2022-09-03T04:11:26.026Z,3.40
2022-09-03T04:13:54.014Z,2.90
2022-09-03T04:16:26.128Z,2.50
2022-09-03T04:18:56.069Z,2.80
2022-09-03T04:21:30.170Z,3.10
2022-09-03T04:23:59.088Z,2.80
2022-09-03T04:26:31.532Z,3.20
2022-09-03T04:29:04.302Z,2.90
2022-09-03T04:31:33.815Z,3.00
2022-09-03T04:34:02.820Z,2.90
2022-09-03T04:36:30.984Z,3.10
2022-09-03T04:39:01.739Z,2.70
2022-09-03T04:41:31.890Z,3.20
2022-09-03T04:44:00.404Z,2.90
2022-09-03T04:46:33.252Z,2.90
2022-09-03T04:49:02.477Z,3.20
2022-09-03T04:51:31.709Z,3.10
2022-09-03T04:54:02.143Z,2.90
2022-09-03T04:56:33.476Z,3.20
2022-09-03T04:59:06.299Z,3.20
2022-09-03T05:04:07.307Z,3.00
2022-09-03T05:06:37.234Z,2.80
2022-09-03T05:09:06.504Z,3.10
2022-09-03T05:11:34.730Z,3.90
2022-09-03T05:14:03.587Z,3.30
2022-09-03T05:16:32.783Z,3.40
2022-09-03T05:19:01.389Z,3.20
2022-09-03T05:21:30.667Z,2.90
2022-09-03T05:23:59.976Z,2.90
2022-09-03T05:26:31.324Z,3.10
2022-09-03T05:29:02.228Z,3.00
2022-09-03T05:31:32.178Z,3.00
2022-09-03T05:34:04.314Z,3.30
2022-09-03T05:36:35.904Z,2.70
2022-09-03T05:39:05.998Z,2.60
2022-09-03T05:41:34.496Z,3.10
2022-09-03T05:44:04.009Z,2.40
2022-09-03T05:46:33.864Z,2.50
2022-09-03T05:49:06.700Z,2.70
2022-09-03T05:54:08.888Z,2.60
2022-09-03T05:56:42.535Z,2.30
2022-09-03T05:59:10.671Z,2.60
2022-09-03T06:01:43.194Z,2.20
2022-09-03T06:04:19.939Z,2.60
2022-09-03T06:06:49.033Z,3.10
2022-09-03T06:09:21.097Z,1.80
2022-09-03T06:11:52.558Z,1.90
2022-09-03T06:14:20.650Z,2.20
2022-09-03T06:16:52.532Z,2.00
2022-09-03T06:19:20.809Z,2.40
2022-09-03T06:21:48.806Z,2.20
2022-09-03T06:24:26.443Z,2.00
2022-09-03T06:26:57.308Z,1.90
2022-09-03T06:29:25.726Z,2.00
2022-09-03T06:31:54.073Z,2.00
2022-09-03T06:34:23.306Z,1.80
2022-09-03T06:36:51.752Z,1.50
2022-09-03T06:39:22.981Z,2.00
2022-09-03T06:41:52.016Z,2.10
2022-09-03T06:44:25.743Z,1.80
2022-09-03T06:46:53.667Z,1.60
2022-09-03T06:49:21.754Z,1.80
2022-09-03T06:51:49.700Z,1.70
2022-09-03T06:54:17.615Z,2.10
2022-09-03T06:56:45.495Z,2.00
2022-09-03T06:59:15.318Z,2.00
2022-09-03T07:01:46.335Z,1.90
2022-09-03T07:04:20.197Z,1.80
2022-09-03T07:06:48.482Z,1.50
2022-09-03T07:09:18.946Z,1.60
2022-09-03T07:11:48.306Z,2.40
2022-09-03T07:14:19.597Z,1.60
2022-09-03T07:16:49.952Z,1.60
2022-09-03T07:19:18.391Z,1.60
2022-09-03T07:21:50.733Z,1.60
2022-09-03T07:24:21.927Z,1.70
2022-09-03T07:26:51.642Z,1.50
2022-09-03T07:29:20.619Z,1.50
2022-09-03T07:31:51.591Z,1.60
2022-09-03T07:34:24.149Z,1.70
2022-09-03T07:36:54.041Z,1.50
2022-09-03T07:39:22.122Z,1.40
2022-09-03T07:41:50.757Z,1.30
2022-09-03T07:44:20.114Z,1.50
2022-09-03T07:46:51.107Z,1.70
2022-09-03T07:49:22.175Z,1.30
2022-09-03T07:51:52.355Z,1.20
2022-09-03T07:54:21.869Z,1.00
2022-09-03T07:56:49.749Z,1.10
2022-09-03T07:59:18.212Z,1.40
2022-09-03T08:01:46.034Z,1.20
2022-09-03T08:04:14.204Z,1.00
2022-09-03T08:06:42.438Z,1.20
2022-09-03T08:09:13.831Z,1.20
2022-09-03T08:11:43.777Z,1.40
2022-09-03T08:14:13.779Z,1.20
2022-09-03T08:16:47.811Z,0.90
2022-09-03T08:19:18.578Z,0.90
2022-09-03T08:21:47.414Z,0.90
2022-09-03T08:24:20.907Z,1.00
2022-09-03T08:26:52.075Z,1.00
2022-09-03T08:29:21.691Z,1.20
2022-09-03T08:31:49.838Z,1.20
2022-09-03T08:34:18.160Z,1.10
2022-09-03T08:36:47.347Z,1.00
2022-09-03T08:39:16.834Z,1.00
2022-09-03T08:41:51.107Z,1.20
2022-09-03T08:44:51.734Z,1.70
2022-09-03T08:47:50.096Z,0.80
2022-09-03T08:50:31.264Z,0.80
2022-09-03T08:53:22.807Z,0.90
2022-09-03T08:56:03.667Z,0.70
2022-09-03T08:58:35.666Z,0.90
2022-09-03T09:01:10.144Z,0.90
2022-09-03T09:03:43.475Z,0.70
2022-09-03T09:06:46.083Z,0.70
2022-09-03T09:09:58.199Z,0.60
2022-09-03T09:13:23.498Z,0.80
2022-09-03T09:16:22.040Z,1.00
2022-09-03T09:19:30.999Z,0.70
2022-09-03T09:22:09.234Z,0.70
2022-09-03T09:24:45.623Z,0.80
2022-09-03T09:27:19.674Z,0.50
2022-09-03T09:29:53.525Z,0.50
2022-09-03T09:32:21.852Z,0.80
2022-09-03T09:34:52.620Z,0.80
2022-09-03T09:37:22.090Z,0.60
2022-09-03T09:39:59.871Z,0.70
2022-09-03T09:42:31.115Z,0.80
2022-09-03T09:45:11.700Z,0.80
2022-09-03T09:47:40.553Z,0.60
2022-09-03T09:50:25.939Z,0.50
2022-09-03T09:53:14.576Z,0.50
2022-09-03T09:55:58.192Z,0.80
2022-09-03T09:58:31.007Z,0.70
2022-09-03T10:01:13.168Z,0.60
2022-09-03T10:04:10.706Z,0.80
2022-09-03T10:06:56.933Z,0.60
2022-09-03T10:09:31.072Z,0.70
2022-09-03T10:12:09.560Z,0.70
2022-09-03T10:14:47.662Z,2.10
2022-09-03T10:17:52.682Z,0.80
2022-09-03T10:20:32.183Z,0.50
2022-09-03T10:23:10.020Z,0.80
2022-09-03T10:25:52.102Z,0.70
2022-09-03T10:28:25.234Z,0.70
2022-09-03T10:31:24.628Z,1.20
2022-09-03T10:34:38.697Z,0.50
2022-09-03T10:37:41.101Z,0.50
2022-09-03T10:40:32.015Z,0.90
2022-09-03T10:43:52.084Z,0.70
2022-09-03T10:46:27.727Z,1.00
2022-09-03T10:50:01.796Z,0.60
2022-09-03T10:52:54.351Z,0.70
2022-09-03T10:55:54.086Z,0.80
2022-09-03T10:59:10.696Z,0.40
2022-09-03T11:02:10.600Z,0.70
2022-09-03T11:05:02.950Z,0.60
2022-09-03T11:07:45.485Z,0.40
2022-09-03T11:10:32.283Z,0.60
2022-09-03T11:13:39.829Z,0.40
2022-09-03T11:16:25.685Z,0.90
2022-09-03T11:19:02.557Z,0.60
2022-09-03T11:21:32.712Z,0.60
2022-09-03T11:24:23.383Z,0.50
2022-09-03T11:27:03.060Z,0.50
2022-09-03T11:29:44.659Z,0.60
2022-09-03T11:32:24.652Z,0.60
2022-09-03T11:34:55.120Z,0.50
2022-09-03T11:37:29.980Z,1.10
2022-09-03T11:40:18.309Z,0.60
2022-09-03T11:42:47.411Z,0.60
2022-09-03T11:45:37.815Z,0.60
2022-09-03T11:48:37.012Z,0.70
2022-09-03T11:51:05.211Z,0.50
2022-09-03T11:53:35.961Z,0.80
2022-09-03T11:56:07.047Z,1.10
2022-09-03T11:58:39.126Z,0.90
2022-09-03T12:01:16.158Z,0.60
2022-09-03T12:03:53.278Z,0.60
2022-09-03T12:06:49.744Z,0.90
2022-09-03T12:09:45.631Z,0.80
2022-09-03T12:12:45.694Z,0.70
2022-09-03T12:15:41.627Z,0.60
2022-09-03T12:18:22.492Z,0.60
2022-09-03T12:20:53.102Z,1.10
2022-09-03T12:23:35.710Z,1.00
2022-09-03T12:26:15.178Z,0.70
2022-09-03T12:28:48.580Z,0.80
2022-09-03T12:31:33.002Z,1.70
2022-09-03T12:34:16.579Z,3.20
2022-09-03T12:36:54.003Z,1.00
2022-09-03T12:42:31.699Z,0.50
2022-09-03T12:45:09.275Z,0.70
2022-09-03T12:47:40.769Z,1.10
2022-09-03T12:50:24.029Z,1.20
2022-09-03T12:53:01.409Z,0.70
2022-09-03T12:55:51.627Z,0.50
2022-09-03T12:58:35.674Z,0.60
2022-09-03T13:01:03.526Z,0.70
2022-09-03T13:03:58.120Z,0.50
2022-09-03T13:06:40.353Z,0.70
2022-09-03T13:09:10.103Z,0.60
2022-09-03T13:11:37.995Z,1.20
2022-09-03T13:14:12.785Z,0.70
2022-09-03T13:16:46.878Z,0.40
2022-09-03T13:19:50.662Z,0.70
2022-09-03T13:22:36.025Z,0.90
2022-09-03T13:25:26.766Z,1.40
2022-09-03T13:28:31.840Z,0.60
2022-09-03T13:31:55.626Z,0.60
2022-09-03T13:34:48.195Z,0.70
2022-09-03T13:38:07.659Z,0.80
2022-09-03T13:40:49.949Z,0.90
2022-09-03T13:43:42.412Z,1.00
2022-09-03T13:46:35.481Z,0.70
2022-09-03T13:52:07.587Z,0.80
2022-09-03T13:54:49.773Z,0.90
2022-09-03T13:57:40.186Z,1.00
2022-09-03T14:00:13.264Z,0.70
2022-09-03T14:02:54.293Z,0.90
2022-09-03T14:06:00.026Z,0.60
2022-09-03T14:09:02.201Z,0.90
2022-09-03T14:11:49.977Z,0.70
2022-09-03T14:15:05.950Z,0.80
2022-09-03T14:18:00.704Z,0.80
2022-09-03T14:20:38.434Z,0.80
2022-09-03T14:23:44.523Z,0.80
2022-09-03T14:26:38.491Z,0.80
2022-09-03T14:29:12.603Z,0.80
2022-09-03T14:32:18.619Z,1.60
2022-09-03T14:35:18.860Z,0.80
2022-09-03T14:38:29.583Z,1.00
2022-09-03T14:41:12.922Z,0.70
2022-09-03T14:44:18.918Z,0.70
2022-09-03T14:47:19.500Z,1.20
2022-09-03T14:50:17.551Z,1.60
2022-09-03T14:53:14.534Z,0.90
2022-09-03T14:56:01.315Z,0.90
2022-09-03T14:59:07.848Z,0.70
2022-09-03T15:01:39.373Z,0.50
2022-09-03T15:04:50.862Z,0.90
2022-09-03T15:07:53.668Z,0.70
2022-09-03T15:10:38.938Z,1.80
2022-09-03T15:13:24.108Z,1.10
2022-09-03T15:16:31.738Z,1.30
2022-09-03T15:19:39.732Z,0.90
2022-09-03T15:22:44.806Z,1.00
2022-09-03T15:25:53.740Z,1.20
2022-09-03T15:29:00.234Z,0.90
2022-09-03T15:32:03.707Z,0.70
2022-09-03T15:35:04.073Z,1.00
2022-09-03T15:37:49.000Z,1.00
2022-09-03T15:40:45.804Z,0.80
2022-09-03T15:43:29.531Z,1.00
2022-09-03T15:46:14.754Z,0.60
2022-09-03T15:49:01.040Z,0.80
2022-09-03T15:51:36.452Z,0.70
2022-09-03T15:54:12.867Z,0.70
2022-09-03T15:56:53.942Z,1.10
2022-09-03T15:59:35.768Z,0.90
2022-09-03T16:02:21.905Z,1.30
2022-09-03T16:04:55.948Z,0.70
2022-09-03T16:07:37.683Z,0.80
2022-09-03T16:10:25.057Z,0.90
2022-09-03T16:13:33.191Z,0.90
2022-09-03T16:16:06.493Z,1.10
2022-09-03T16:18:54.092Z,0.80
2022-09-03T16:21:47.655Z,0.60
2022-09-03T16:24:42.763Z,0.70
2022-09-03T16:27:30.684Z,0.70
2022-09-03T16:30:07.982Z,0.70
2022-09-03T16:33:15.126Z,0.90
2022-09-03T16:36:10.379Z,0.90
2022-09-03T16:39:15.579Z,0.70
2022-09-03T16:42:29.153Z,0.70
2022-09-03T16:48:24.197Z,0.60
2022-09-03T16:51:52.826Z,1.00
2022-09-03T16:55:13.802Z,1.10
2022-09-03T16:57:54.679Z,0.80
2022-09-03T17:00:28.228Z,1.00
2022-09-03T17:03:57.035Z,1.00
2022-09-03T17:07:09.939Z,0.60
2022-09-03T17:10:08.928Z,0.90
2022-09-03T17:12:59.783Z,1.30
2022-09-03T17:15:48.596Z,1.00
2022-09-03T17:18:31.279Z,1.50
2022-09-03T17:21:39.152Z,0.70
2022-09-03T17:24:52.823Z,0.60
2022-09-03T17:28:07.567Z,1.00
2022-09-03T17:31:10.190Z,2.00
2022-09-03T17:34:26.154Z,1.20
2022-09-03T17:37:50.268Z,0.80
2022-09-03T17:40:39.886Z,1.00
2022-09-03T17:43:54.048Z,0.80
2022-09-03T17:46:52.914Z,0.70
2022-09-03T17:49:27.727Z,0.80
2022-09-03T17:52:27.218Z,1.40
2022-09-03T17:55:11.563Z,1.10
2022-09-03T17:57:50.506Z,0.90
2022-09-03T18:00:36.467Z,1.00
2022-09-03T18:03:19.606Z,0.80
2022-09-03T18:06:01.285Z,1.40
2022-09-03T18:09:02.394Z,1.30
2022-09-03T18:11:41.448Z,1.10
2022-09-03T18:14:17.795Z,1.10
2022-09-03T18:17:35.570Z,1.60
2022-09-03T18:20:32.870Z,1.10
2022-09-03T18:23:50.014Z,1.40
2022-09-03T18:26:54.029Z,1.40
2022-09-03T18:30:07.511Z,1.20
2022-09-03T18:32:53.905Z,1.50
2022-09-03T18:35:50.948Z,1.20
2022-09-03T18:38:51.487Z,1.10
2022-09-03T18:42:44.852Z,1.50
2022-09-03T18:49:23.552Z,1.40
2022-09-03T18:52:49.937Z,1.60
2022-09-03T18:56:00.795Z,1.20
2022-09-03T18:59:12.812Z,1.40
2022-09-03T19:02:01.389Z,1.10
2022-09-03T19:05:20.932Z,1.00
2022-09-03T19:08:33.951Z,1.20
2022-09-03T19:11:44.408Z,1.20
2022-09-03T19:15:05.981Z,1.60
2022-09-03T19:18:52.553Z,1.00
2022-09-03T19:22:03.983Z,1.70
2022-09-03T19:24:50.755Z,1.20
2022-09-03T19:28:22.915Z,0.90
2022-09-03T19:31:49.556Z,1.30
2022-09-03T19:35:00.951Z,0.80
2022-09-03T19:38:23.049Z,0.90
2022-09-03T19:41:35.328Z,0.80
2022-09-03T19:45:00.936Z,0.90
2022-09-03T19:48:27.767Z,0.60
2022-09-03T19:51:33.803Z,0.70
2022-09-03T19:54:22.715Z,0.80
2022-09-03T19:57:11.890Z,0.60
2022-09-03T20:00:00.350Z,0.50
2022-09-03T20:02:46.993Z,0.90
2022-09-03T20:05:40.003Z,1.30
2022-09-03T20:08:27.120Z,0.80
2022-09-03T20:10:58.990Z,0.70
2022-09-03T20:13:26.893Z,0.70
2022-09-03T20:16:31.347Z,1.00
2022-09-03T20:19:29.530Z,0.80
2022-09-03T20:22:30.021Z,0.60
2022-09-03T20:25:29.959Z,0.70
2022-09-03T20:28:22.907Z,0.70
2022-09-03T20:31:03.177Z,0.50
2022-09-03T20:34:23.222Z,0.90
2022-09-03T20:37:31.161Z,0.90
2022-09-03T20:40:20.914Z,0.80
2022-09-03T20:43:29.726Z,0.80
2022-09-03T20:46:26.030Z,0.70
2022-09-03T20:49:37.959Z,0.60
2022-09-03T20:52:23.347Z,0.40
2022-09-03T20:55:11.362Z,0.70
2022-09-03T20:58:17.671Z,1.00
2022-09-03T21:01:07.128Z,0.60
2022-09-03T21:03:52.084Z,0.60
2022-09-03T21:06:35.139Z,0.50
2022-09-03T21:09:37.195Z,0.50
2022-09-03T21:12:34.667Z,0.70
2022-09-03T21:15:15.596Z,0.20
2022-09-03T21:18:03.460Z,0.40
2022-09-03T21:20:52.179Z,0.80
2022-09-03T21:23:33.795Z,0.80
2022-09-03T21:26:33.498Z,0.50
2022-09-03T21:29:25.871Z,0.60
2022-09-03T21:32:05.851Z,0.60
2022-09-03T21:34:43.211Z,0.50
2022-09-03T21:37:13.671Z,0.60
2022-09-03T21:39:48.677Z,0.60
2022-09-03T21:42:50.448Z,0.70
2022-09-03T21:45:29.088Z,0.60
2022-09-03T21:48:25.301Z,0.90
2022-09-03T21:51:04.523Z,0.70
2022-09-03T21:53:46.350Z,0.60
2022-09-03T21:56:47.719Z,0.70
2022-09-03T21:59:58.098Z,0.60
2022-09-03T22:02:32.875Z,0.70
2022-09-03T22:05:03.658Z,0.90
2022-09-03T22:08:05.961Z,0.80
2022-09-03T22:10:55.039Z,0.60
2022-09-03T22:13:31.266Z,0.70
2022-09-03T22:16:46.219Z,0.80
2022-09-03T22:19:14.573Z,0.50
2022-09-03T22:21:59.991Z,0.50
2022-09-03T22:25:02.711Z,0.80
2022-09-03T22:28:02.146Z,0.80
2022-09-03T22:30:42.866Z,0.80
2022-09-03T22:33:33.099Z,0.60
2022-09-03T22:36:21.589Z,0.80
2022-09-03T22:38:56.340Z,1.00
2022-09-03T22:41:55.419Z,0.50
2022-09-03T22:44:48.070Z,0.90
2022-09-03T22:47:45.507Z,0.70
2022-09-03T22:50:25.360Z,0.60
2022-09-03T22:53:21.136Z,0.60
2022-09-03T22:56:06.976Z,0.70
2022-09-03T22:58:52.636Z,0.90
2022-09-03T23:01:48.867Z,0.80
2022-09-03T23:04:34.303Z,0.80
2022-09-03T23:07:33.169Z,0.80
2022-09-03T23:10:10.291Z,0.60
2022-09-03T23:13:01.023Z,0.50
2022-09-03T23:15:32.266Z,0.70
2022-09-03T23:18:26.972Z,0.70
2022-09-03T23:21:10.671Z,0.80
2022-09-03T23:23:46.497Z,0.70
2022-09-03T23:26:31.073Z,0.80
2022-09-03T23:29:23.671Z,0.70
2022-09-03T23:31:55.740Z,0.80
2022-09-03T23:34:24.476Z,0.90
2022-09-03T23:37:32.988Z,0.70
2022-09-03T23:40:34.994Z,1.40
2022-09-03T23:43:24.777Z,0.90
2022-09-03T23:46:13.716Z,0.90
2022-09-03T23:49:29.039Z,0.70
2022-09-03T23:52:29.831Z,0.60
2022-09-03T23:55:22.210Z,0.80
2022-09-03T23:58:09.869Z,1.00
